KMFI/MFI METAR and TAF weather

Enter ICAO airport designator
Station Type Date Time Source
KMFI METAR 2020/09/22 19:54 UTC NOAA

KMFI 221954Z AUTO 20008KT 10SM CLR 25/16 A3007 RMK AO2 SLP180 T02500156


Station Type Date Time Source
KMFI Decoded METAR 2020/09/22 19:54 UTC NOAA

MARSHFIELD MUNICIPAL AIRPORT, WI, United States (KMFI) 44-38N 90-11W 379M
Sep 22, 2020 - 03:54 PM EDT / 2020.09.22 1954 UTC
Wind: from the SSW (200 degrees) at 9 MPH (8 KT):0
Visibility: 10 mile(s):0
Sky conditions: clear
Temperature: 77.0 F (25.0 C)
Dew Point: 60.1 F (15.6 C)
Relative Humidity: 55%
Pressure (altimeter): 30.07 in. Hg (1018 hPa)
ob: KMFI 221954Z AUTO 20008KT 10SM CLR 25/16 A3007 RMK AO2 SLP180 T02500156
cycle: 20

Station Type Date Time Source
KMFI TAF UTC NOAA

Error!

Example: see airport list